Time;durP1;ratioP1;P1;durP2;ratioP2;P2;SDS_P1;SDS_P2;PMS_P1;PMS_P2;Temp;Humidity;BMP_temperature;BMP_pressure;BME280_temperature;BME280_humidity;BME280_pressure;Samples;Min_cycle;Max_cycle;Signal;HPM_P1;HPM_P2
2022/08/16 00:00:19;;;;;;;6.05;2.78;;;;;;;18.76;68.06;92452.41;2015227;71;20145;-72
2022/08/16 00:02:45;;;;;;;5.82;2.83;;;;;;;18.77;68.20;92453.84;2018390;71;20157;-73
2022/08/16 00:05:13;;;;;;;4.10;2.67;;;;;;;18.82;66.92;92454.69;2018334;71;20157;-73
2022/08/16 00:07:40;;;;;;;4.07;2.95;;;;;;;18.94;65.50;92452.16;2015090;71;20220;-73
2022/08/16 00:10:09;;;;;;;4.57;2.80;;;;;;;18.84;66.99;92451.19;2018945;71;20223;-73
2022/08/16 00:12:35;;;;;;;3.75;2.80;;;;;;;18.78;66.84;92457.44;2024645;71;20137;-73
2022/08/16 00:15:11;;;;;;;5.13;3.08;;;;;;;18.58;69.51;92451.88;2023602;71;20606;-73
2022/08/16 00:17:36;;;;;;;6.75;3.20;;;;;;;18.55;67.99;92450.38;2021190;71;20227;-72
2022/08/16 00:20:07;;;;;;;4.65;2.80;;;;;;;18.63;67.52;92452.72;2024859;71;20157;-72
2022/08/16 00:22:35;;;;;;;3.38;2.55;;;;;;;18.67;65.71;92458.53;2021578;71;20137;-72
2022/08/16 00:25:03;;;;;;;5.03;2.70;;;;;;;18.53;67.74;92465.31;2021374;71;20586;-72
2022/08/16 00:27:29;;;;;;;6.75;2.38;;;;;;;18.61;65.28;92461.97;2024490;71;20169;-72
2022/08/16 00:29:55;;;;;;;4.03;2.50;;;;;;;18.44;68.08;92457.22;2021392;71;20502;-73
2022/08/16 00:32:20;;;;;;;4.55;2.20;;;;;;;18.44;67.50;92455.06;2024564;71;20157;-72
2022/08/16 00:34:46;;;;;;;2.58;2.00;;;;;;;18.41;67.60;92450.72;2024187;71;20294;-72
2022/08/16 00:37:13;;;;;;;5.18;2.10;;;;;;;18.39;67.58;92464.91;2021431;71;20224;-72
2022/08/16 00:39:39;;;;;;;3.05;2.00;;;;;;;18.33;66.78;92447.66;2024284;71;20169;-72
2022/08/16 00:42:06;;;;;;;2.65;2.13;;;;;;;18.24;67.94;92451.66;2022058;70;20256;-72
2022/08/16 00:44:34;;;;;;;4.05;2.28;;;;;;;18.26;65.92;92454.56;2024058;71;20233;-73
2022/08/16 00:47:07;;;;;;;7.20;2.10;;;;;;;18.15;67.39;92459.25;2023627;71;20156;-72
2022/08/16 00:49:34;;;;;;;2.55;1.90;;;;;;;18.21;66.62;92455.84;2020797;71;20496;-73
2022/08/16 00:52:00;;;;;;;5.38;1.80;;;;;;;18.12;66.96;92451.31;2021390;71;20306;-72
2022/08/16 00:54:29;;;;;;;3.50;2.00;;;;;;;18.10;67.33;92459.78;2021530;71;20181;-72
2022/08/16 00:56:56;;;;;;;3.65;2.10;;;;;;;18.00;67.64;92460.22;2024462;71;20256;-72
2022/08/16 00:59:26;;;;;;;3.63;1.88;;;;;;;18.12;65.99;92457.00;2024574;71;20602;-72
2022/08/16 01:01:52;;;;;;;2.95;2.03;;;;;;;18.02;66.94;92461.00;2021543;71;20173;-72
2022/08/16 01:04:21;;;;;;;6.10;2.00;;;;;;;17.86;67.41;92456.94;2024674;71;20221;-72
2022/08/16 01:06:48;;;;;;;3.78;2.08;;;;;;;17.89;66.15;92456.34;2024299;71;20195;-72
2022/08/16 01:09:14;;;;;;;2.55;1.90;;;;;;;17.81;67.30;92458.22;2024674;71;20273;-72
2022/08/16 01:11:40;;;;;;;4.35;2.20;;;;;;;17.80;67.42;92454.66;2024423;71;20149;-72
2022/08/16 01:14:10;;;;;;;4.15;2.20;;;;;;;17.88;65.96;92449.22;2021431;71;20153;-72
2022/08/16 01:16:37;;;;;;;5.43;2.08;;;;;;;17.71;67.17;92450.81;2021388;71;20606;-72
2022/08/16 01:19:02;;;;;;;4.22;1.98;;;;;;;17.76;65.79;92452.41;2021494;71;20149;-72
2022/08/16 01:21:37;;;;;;;4.70;2.10;;;;;;;17.64;67.76;92452.03;2021504;71;20145;-73
2022/08/16 01:24:29;;;;;;;6.25;2.20;;;;;;;17.72;66.08;92443.00;2024699;71;20192;-73
2022/08/16 01:27:01;;;;;;;3.25;2.15;;;;;;;17.46;68.69;92440.81;2020858;71;20198;-72
2022/08/16 01:29:35;;;;;;;7.47;2.25;;;;;;;17.49;68.06;92447.28;2024659;71;20295;-72
2022/08/16 01:32:01;;;;;;;4.40;2.03;;;;;;;17.52;68.03;92440.25;2020905;71;20665;-72
2022/08/16 01:34:27;;;;;;;3.00;2.13;;;;;;;17.44;69.09;92446.41;2020922;71;20256;-72
2022/08/16 01:37:07;;;;;;;3.00;2.10;;;;;;;17.54;68.04;92446.72;2018186;71;20157;-72
2022/08/16 01:39:34;;;;;;;3.47;2.10;;;;;;;17.46;68.51;92455.03;2020728;71;20157;-72
2022/08/16 01:42:03;;;;;;;5.35;1.98;;;;;;;17.56;67.67;92457.47;2018056;71;20153;-72
2022/08/16 01:44:29;;;;;;;4.68;2.50;;;;;;;17.55;67.85;92456.00;2023261;71;20249;-72
2022/08/16 01:46:56;;;;;;;3.50;2.22;;;;;;;17.82;65.67;92454.69;2020778;71;20156;-72
2022/08/16 01:49:31;;;;;;;4.90;2.03;;;;;;;17.72;67.96;92451.53;2018110;71;20134;-72
2022/08/16 01:52:03;;;;;;;5.00;2.08;;;;;;;17.66;68.18;92445.66;2018016;71;20260;-72
2022/08/16 01:54:47;;;;;;;6.03;2.40;;;;;;;17.50;68.55;92443.78;2024383;71;20641;-72
2022/08/16 01:57:13;;;;;;;4.90;2.20;;;;;;;17.66;67.64;92448.50;2021253;71;20240;-72
2022/08/16 01:59:40;;;;;;;3.65;2.38;;;;;;;17.73;67.43;92448.06;2021242;71;20313;-72
2022/08/16 02:02:08;;;;;;;5.32;2.08;;;;;;;17.67;68.83;92444.25;2020687;71;20208;-73
2022/08/16 02:04:34;;;;;;;2.47;2.22;;;;;;;17.62;69.60;92442.69;2017927;71;20157;-73
2022/08/16 02:07:07;;;;;;;4.63;2.50;;;;;;;17.65;68.81;92450.63;2023417;71;20507;-74
2022/08/16 02:09:36;;;;;;;2.85;2.20;;;;;;;17.67;67.60;92447.09;2018358;71;20492;-74
2022/08/16 02:12:05;;;;;;;4.38;2.20;;;;;;;17.71;68.25;92441.53;2018241;71;20234;-73
2022/08/16 02:14:32;;;;;;;3.42;2.30;;;;;;;17.78;66.89;92443.94;2018279;71;20153;-74
2022/08/16 02:17:01;;;;;;;3.35;2.60;;;;;;;17.71;67.45;92438.69;2023619;71;20164;-74
2022/08/16 02:19:30;;;;;;;2.92;2.28;;;;;;;17.66;68.02;92437.13;2023604;70;20172;-73
2022/08/16 02:21:58;;;;;;;3.00;2.50;;;;;;;17.77;67.49;92445.31;2018293;71;20546;-73
2022/08/16 02:24:24;;;;;;;4.03;2.40;;;;;;;17.71;69.62;92435.84;2024050;71;20148;-74
2022/08/16 02:26:50;;;;;;;4.03;2.40;;;;;;;17.69;68.80;92436.53;2024533;71;20224;-74
2022/08/16 02:29:17;;;;;;;3.83;2.20;;;;;;;17.87;66.78;92441.31;2021184;71;20225;-74
2022/08/16 02:31:45;;;;;;;3.95;2.58;;;;;;;17.78;67.62;92438.25;2021340;71;20307;-74
2022/08/16 02:34:12;;;;;;;3.65;2.70;;;;;;;17.72;67.85;92448.69;2021467;71;20137;-74
2022/08/16 02:36:40;;;;;;;3.25;2.60;;;;;;;17.69;69.13;92456.44;2021622;71;20800;-74
2022/08/16 02:39:07;;;;;;;4.35;2.42;;;;;;;17.69;68.72;92447.19;2021394;71;20155;-74
2022/08/16 02:41:35;;;;;;;3.50;2.55;;;;;;;17.73;68.16;92455.81;2024589;71;20586;-74
2022/08/16 02:44:04;;;;;;;5.20;2.38;;;;;;;17.16;71.51;92451.94;2021478;71;20149;-73
2022/08/16 02:46:31;;;;;;;5.00;2.72;;;;;;;17.40;70.26;92451.25;2021388;71;20142;-74
2022/08/16 02:48:59;;;;;;;5.78;2.33;;;;;;;17.28;70.37;92451.59;2022148;71;20176;-73
2022/08/16 02:51:25;;;;;;;6.45;2.72;;;;;;;17.61;68.26;92453.34;2021094;71;20540;-73
2022/08/16 02:53:51;;;;;;;4.65;2.50;;;;;;;17.75;68.42;92455.94;2021229;71;20579;-73
2022/08/16 02:56:17;;;;;;;5.43;2.60;;;;;;;17.60;68.94;92446.19;2024599;71;20189;-73
2022/08/16 02:58:46;;;;;;;2.90;2.50;;;;;;;17.56;68.95;92460.31;2021669;71;20157;-73
2022/08/16 03:01:14;;;;;;;2.85;2.35;;;;;;;17.63;67.22;92449.81;2019330;71;20144;-73
2022/08/16 03:03:39;;;;;;;4.72;2.80;;;;;;;17.54;69.94;92443.16;2021795;71;20645;-72
2022/08/16 03:06:05;;;;;;;4.93;2.90;;;;;;;17.60;68.09;92451.91;2021890;71;20143;-73
2022/08/16 03:08:32;;;;;;;5.97;2.50;;;;;;;17.59;68.43;92444.72;2025141;71;20144;-73
2022/08/16 03:10:57;;;;;;;4.97;2.50;;;;;;;17.52;69.08;92449.53;2021598;71;20160;-73
2022/08/16 03:13:23;;;;;;;2.50;2.30;;;;;;;17.51;67.97;92442.38;2021821;71;20217;-72
2022/08/16 03:15:49;;;;;;;7.78;2.35;;;;;;;17.50;68.63;92443.78;2021863;71;20176;-73
2022/08/16 03:18:16;;;;;;;6.50;2.60;;;;;;;17.43;68.59;92442.13;2021790;71;20339;-74
2022/08/16 03:20:42;;;;;;;4.75;2.53;;;;;;;17.48;67.08;92440.84;2018605;71;20632;-73
2022/08/16 03:23:08;;;;;;;3.13;2.50;;;;;;;17.40;68.38;92440.59;2023844;71;20179;-74
2022/08/16 03:25:34;;;;;;;4.93;2.70;;;;;;;17.12;69.91;92445.38;2018220;71;20153;-74
2022/08/16 03:28:01;;;;;;;5.55;2.85;;;;;;;16.94;71.66;92451.91;2018638;71;20238;-73
2022/08/16 03:30:30;;;;;;;7.00;3.03;;;;;;;17.13;69.71;92444.72;2023799;70;20203;-74
2022/08/16 03:32:59;;;;;;;4.97;2.50;;;;;;;17.28;68.67;92445.91;2021906;71;20145;-74
2022/08/16 03:35:32;;;;;;;4.78;2.80;;;;;;;17.23;69.43;92447.91;2024620;71;20157;-74
2022/08/16 03:38:01;;;;;;;4.70;2.30;;;;;;;17.25;68.88;92439.41;2021924;71;20249;-74
2022/08/16 03:40:28;;;;;;;4.72;2.72;;;;;;;17.24;69.40;92440.09;2022649;71;20165;-73
2022/08/16 03:42:54;;;;;;;3.80;2.53;;;;;;;17.13;69.99;92436.19;2023938;71;20648;-73
2022/08/16 03:45:24;;;;;;;3.53;2.63;;;;;;;17.24;68.25;92451.47;2021467;71;20168;-73
2022/08/16 03:47:51;;;;;;;3.15;2.20;;;;;;;17.16;68.94;92440.56;2018587;71;20581;-73
2022/08/16 03:50:17;;;;;;;3.72;2.63;;;;;;;17.21;68.77;92435.72;2021141;71;20169;-74
2022/08/16 03:52:43;;;;;;;3.70;2.65;;;;;;;17.20;68.38;92437.84;2018665;71;20157;-74
2022/08/16 03:55:10;;;;;;;5.20;2.70;;;;;;;17.02;70.13;92437.97;2018612;71;20221;-74
2022/08/16 03:57:35;;;;;;;4.75;2.65;;;;;;;17.09;69.63;92433.22;2023941;71;20553;-74
2022/08/16 04:00:13;;;;;;;3.92;2.33;;;;;;;17.05;69.46;92435.22;2020146;71;20233;-74
2022/08/16 04:02:41;;;;;;;5.78;2.50;;;;;;;17.00;68.42;92434.34;2025131;71;20150;-74
2022/08/16 04:05:13;;;;;;;3.38;2.58;;;;;;;17.05;68.64;92435.22;2019383;71;20149;-74
2022/08/16 04:07:39;;;;;;;5.05;2.60;;;;;;;16.86;70.69;92434.59;2021610;71;20149;-74
2022/08/16 04:10:07;;;;;;;6.43;2.53;;;;;;;16.91;70.03;92433.34;2022773;71;20168;-73
2022/08/16 04:12:33;;;;;;;4.18;3.05;;;;;;;16.93;69.90;92435.53;2023847;71;20145;-73
2022/08/16 04:15:01;;;;;;;5.60;3.08;;;;;;;16.95;68.90;92430.66;2018496;71;20241;-74
2022/08/16 04:17:28;;;;;;;4.35;2.90;;;;;;;16.93;69.94;92433.41;2021759;70;20240;-74
2022/08/16 04:19:56;;;;;;;4.50;2.65;;;;;;;17.00;69.44;92432.22;2024310;71;20141;-74
2022/08/16 04:22:22;;;;;;;6.40;2.88;;;;;;;17.11;68.14;92433.28;2020911;71;20176;-73
2022/08/16 04:24:52;;;;;;;4.15;2.80;;;;;;;16.99;68.93;92418.66;2021491;71;20236;-73
2022/08/16 04:27:18;;;;;;;4.18;2.50;;;;;;;17.02;68.24;92423.75;2024295;71;20524;-73
2022/08/16 04:29:44;;;;;;;3.35;2.30;;;;;;;17.17;66.65;92435.59;2019632;71;20145;-73
2022/08/16 04:32:09;;;;;;;5.43;2.65;;;;;;;16.95;69.01;92433.50;2018276;71;20234;-72
2022/08/16 04:34:38;;;;;;;6.95;2.83;;;;;;;17.00;68.41;92434.34;2017238;71;20240;-73
2022/08/16 04:37:05;;;;;;;3.60;2.70;;;;;;;16.91;69.90;92432.63;2018188;71;20258;-73
2022/08/16 04:39:36;;;;;;;3.45;2.67;;;;;;;16.95;68.42;92430.66;2024327;71;20161;-73
2022/08/16 04:42:04;;;;;;;4.65;2.40;;;;;;;16.94;67.92;92425.59;2021578;71;20145;-73
2022/08/16 04:44:30;;;;;;;4.75;2.80;;;;;;;16.90;68.67;92423.34;2024842;71;20149;-73
2022/08/16 04:46:56;;;;;;;3.90;2.65;;;;;;;16.97;68.26;92430.69;2021584;71;20173;-73
2022/08/16 04:49:23;;;;;;;3.97;2.50;;;;;;;16.97;68.23;92427.13;2021492;71;20267;-73
2022/08/16 04:51:50;;;;;;;4.13;2.63;;;;;;;16.75;70.55;92430.69;2021640;71;20145;-73
2022/08/16 04:54:16;;;;;;;3.05;2.60;;;;;;;16.88;68.52;92431.81;2021551;71;20156;-74
2022/08/16 04:56:42;;;;;;;2.58;2.38;;;;;;;16.73;71.02;92439.16;2021556;71;20149;-73
2022/08/16 04:59:09;;;;;;;3.83;2.30;;;;;;;16.81;68.89;92441.53;2023811;71;20411;-73
2022/08/16 05:01:36;;;;;;;2.53;2.33;;;;;;;16.78;70.25;92437.19;2021215;71;20214;-74
2022/08/16 05:04:03;;;;;;;4.43;2.65;;;;;;;16.87;69.22;92441.03;2018393;71;20165;-73
2022/08/16 05:06:35;;;;;;;4.13;2.60;;;;;;;16.79;70.56;92450.00;2018477;71;20157;-74
2022/08/16 05:09:01;;;;;;;4.80;2.60;;;;;;;16.73;70.96;92446.94;2022523;71;20640;-74
2022/08/16 05:11:28;;;;;;;4.63;2.85;;;;;;;16.44;73.18;92445.19;2024737;71;20187;-74
2022/08/16 05:13:54;;;;;;;4.10;2.63;;;;;;;16.59;71.50;92447.16;2021660;71;20188;-74
2022/08/16 05:16:26;;;;;;;7.35;2.70;;;;;;;16.73;72.17;92449.78;2024259;71;20210;-74
2022/08/16 05:19:01;;;;;;;4.75;2.58;;;;;;;16.93;69.13;92453.31;2021276;71;20237;-74
2022/08/16 05:21:31;;;;;;;6.63;2.88;;;;;;;16.94;70.24;92451.91;2021695;71;20176;-74
2022/08/16 05:23:58;;;;;;;4.65;2.85;;;;;;;16.89;70.98;92447.47;2021146;71;20173;-74
2022/08/16 05:26:28;;;;;;;3.47;3.13;;;;;;;16.34;74.65;92454.09;2021489;71;20302;-74
2022/08/16 05:28:58;;;;;;;3.15;2.80;;;;;;;16.78;71.01;92454.22;2024208;71;20252;-74
2022/08/16 05:31:26;;;;;;;4.13;3.00;;;;;;;17.01;70.88;92459.28;2020921;71;20503;-74
2022/08/16 05:33:53;;;;;;;4.22;2.80;;;;;;;17.04;70.95;92460.06;2021505;71;20145;-73
2022/08/16 05:36:19;;;;;;;2.90;2.63;;;;;;;17.12;68.31;92456.75;2021534;71;20225;-74
2022/08/16 05:38:49;;;;;;;4.30;3.70;;;;;;;17.33;68.06;92466.69;2021675;71;20161;-73
2022/08/16 05:41:15;;;;;;;6.45;3.70;;;;;;;17.14;70.23;92463.25;2020984;71;20540;-74
2022/08/16 05:43:43;;;;;;;7.53;4.80;;;;;;;17.22;69.43;92468.47;2018325;71;20154;-74
2022/08/16 05:46:10;;;;;;;4.60;3.40;;;;;;;17.25;68.36;92473.56;2021640;71;20149;-74
2022/08/16 05:48:36;;;;;;;4.63;2.80;;;;;;;17.50;67.07;92475.06;2023697;71;20161;-74
2022/08/16 05:51:06;;;;;;;6.10;3.80;;;;;;;17.41;69.31;92473.38;2023700;71;20198;-73
2022/08/16 05:53:33;;;;;;;5.88;2.80;;;;;;;17.52;68.53;92472.28;2021500;71;20235;-74
2022/08/16 05:56:12;;;;;;;6.53;2.90;;;;;;;17.64;66.95;92469.09;2021224;71;20491;-74
2022/08/16 05:58:41;;;;;;;4.72;3.00;;;;;;;17.63;68.40;92470.47;2019355;71;20222;-74
2022/08/16 06:01:10;;;;;;;2.88;2.63;;;;;;;17.77;68.36;92473.06;2019269;71;20199;-73
2022/08/16 06:03:38;;;;;;;5.57;2.85;;;;;;;17.87;67.61;92470.53;2019387;71;20264;-74
2022/08/16 06:06:13;;;;;;;5.03;2.70;;;;;;;18.00;68.63;92480.16;2016537;71;20270;-74
2022/08/16 06:08:41;;;;;;;5.78;3.22;;;;;;;17.95;67.50;92484.28;2019240;71;20706;-75
2022/08/16 06:11:08;;;;;;;3.70;2.97;;;;;;;17.99;67.63;92482.28;2019432;71;20161;-74
2022/08/16 06:13:36;;;;;;;4.32;3.00;;;;;;;18.10;66.33;92482.56;2023059;71;20160;-74
2022/08/16 06:16:06;;;;;;;5.22;3.25;;;;;;;18.10;69.70;92477.63;2022555;71;20594;-72
2022/08/16 06:18:35;;;;;;;6.97;3.10;;;;;;;18.06;66.60;92473.94;2019505;71;20137;-72
2022/08/16 06:21:02;;;;;;;4.82;2.92;;;;;;;18.18;68.25;92475.00;2019477;71;20260;-71
2022/08/16 06:23:28;;;;;;;5.00;3.10;;;;;;;18.39;66.39;92479.16;2018920;71;20188;-73
2022/08/16 06:25:59;;;;;;;3.47;2.80;;;;;;;18.36;66.70;92471.94;2019295;71;20244;-73
2022/08/16 06:28:29;;;;;;;7.30;3.15;;;;;;;18.59;65.14;92478.28;2019220;71;20149;-72
2022/08/16 06:30:55;;;;;;;5.90;3.05;;;;;;;18.45;66.14;92472.91;2022873;71;20176;-73
2022/08/16 06:33:22;;;;;;;3.83;3.05;;;;;;;18.01;67.37;92464.53;2024577;71;20539;-72
2022/08/16 06:35:50;;;;;;;6.32;3.65;;;;;;;17.65;70.85;92470.56;2021627;71;20157;-72
2022/08/16 06:38:16;;;;;;;6.45;3.08;;;;;;;18.07;69.67;92466.84;2021069;71;20213;-73
2022/08/16 06:40:42;;;;;;;4.05;3.00;;;;;;;18.24;67.67;92460.22;2023649;71;20172;-73
2022/08/16 06:43:11;;;;;;;5.75;3.28;;;;;;;18.11;68.77;92464.09;2025031;71;20187;-74
2022/08/16 06:45:41;;;;;;;5.97;3.33;;;;;;;17.93;68.89;92467.13;2021603;71;20656;-73
2022/08/16 06:48:11;;;;;;;3.85;3.28;;;;;;;17.89;69.06;92464.16;2021831;71;20159;-72
2022/08/16 06:50:37;;;;;;;5.80;3.13;;;;;;;18.21;67.91;92470.09;2020613;71;20137;-73
2022/08/16 06:53:06;;;;;;;3.50;3.20;;;;;;;18.58;67.08;92471.13;2018309;71;20236;-73
2022/08/16 06:55:34;;;;;;;7.32;3.40;;;;;;;18.66;65.84;92474.94;2018361;71;20557;-74
2022/08/16 06:58:01;;;;;;;6.18;3.47;;;;;;;18.58;66.92;92477.53;2021889;71;20621;-73
2022/08/16 07:00:28;;;;;;;5.53;3.33;;;;;;;18.74;66.57;92483.00;2021975;71;20165;-74
2022/08/16 07:03:06;;;;;;;3.72;3.08;;;;;;;18.84;66.57;92483.28;2021876;71;20157;-73
2022/08/16 07:05:32;;;;;;;3.13;2.80;;;;;;;19.15;65.50;92478.34;2018376;71;20246;-75
2022/08/16 07:08:10;;;;;;;3.22;2.90;;;;;;;19.65;63.44;92486.72;2018372;71;20553;-74
2022/08/16 07:10:37;;;;;;;4.18;2.97;;;;;;;20.16;63.66;92479.31;2018149;71;20156;-74
2022/08/16 07:13:04;;;;;;;4.63;2.78;;;;;;;20.56;63.87;92465.19;2020968;71;20688;-74
2022/08/16 07:15:31;;;;;;;4.32;2.70;;;;;;;20.97;60.07;92471.69;2017472;71;20578;-74
2022/08/16 07:18:00;;;;;;;4.07;3.20;;;;;;;21.00;60.90;92465.31;2017614;71;20189;-74
2022/08/16 07:20:27;;;;;;;3.95;2.50;;;;;;;21.59;60.97;92477.09;2017577;71;20268;-74
2022/08/16 07:22:54;;;;;;;4.95;3.13;;;;;;;22.10;60.54;92471.41;2017594;71;20218;-74
2022/08/16 07:25:25;;;;;;;3.95;2.60;;;;;;;22.55;58.00;92473.50;2016465;71;20173;-75
2022/08/16 07:27:51;;;;;;;4.63;2.72;;;;;;;22.75;56.80;92481.63;2024230;71;20213;-75
2022/08/16 07:30:21;;;;;;;4.40;2.78;;;;;;;23.04;56.56;92474.06;2021852;71;20176;-75
2022/08/16 07:32:49;;;;;;;4.00;2.67;;;;;;;24.33;51.73;92472.31;2020704;71;20194;-75
2022/08/16 07:35:16;;;;;;;4.68;2.72;;;;;;;24.33;52.52;92466.56;2024985;71;20165;-74
2022/08/16 07:37:41;;;;;;;4.97;2.78;;;;;;;22.97;53.98;92460.38;2024427;70;20159;-76
2022/08/16 07:40:20;;;;;;;3.38;2.97;;;;;;;22.90;54.90;92468.19;2019322;71;20527;-75
2022/08/16 07:42:46;;;;;;;3.33;2.80;;;;;;;23.29;54.10;92472.19;2020133;71;20157;-76
2022/08/16 07:45:19;;;;;;;5.25;2.40;;;;;;;24.06;53.68;92480.06;2021859;71;20541;-76
2022/08/16 07:47:49;;;;;;;3.42;3.00;;;;;;;23.92;53.61;92474.22;2018501;71;20164;-75
2022/08/16 07:50:15;;;;;;;3.28;2.40;;;;;;;24.41;53.69;92483.88;2018601;71;20158;-74
2022/08/16 07:52:43;;;;;;;4.57;2.63;;;;;;;24.62;51.89;92487.59;2019376;71;20256;-77
2022/08/16 07:55:12;;;;;;;4.32;2.80;;;;;;;24.28;53.00;92488.09;2024465;71;20182;-76
2022/08/16 07:57:40;;;;;;;4.20;2.72;;;;;;;24.38;51.66;92484.59;2021717;71;20165;-74
2022/08/16 08:00:07;;;;;;;3.53;2.60;;;;;;;23.49;52.29;92485.31;2021358;71;20585;-75
2022/08/16 08:02:40;;;;;;;2.75;2.53;;;;;;;24.12;49.05;92480.09;2024448;70;20229;-74
2022/08/16 08:05:07;;;;;;;2.45;2.10;;;;;;;24.83;47.43;92474.00;2020005;71;20555;-75
2022/08/16 08:07:36;;;;;;;2.53;2.30;;;;;;;25.21;47.74;92479.22;2019193;71;20196;-74
2022/08/16 08:10:04;;;;;;;2.35;2.00;;;;;;;25.74;45.83;92482.19;2018205;71;20149;-76
2022/08/16 08:12:30;;;;;;;2.13;1.98;;;;;;;24.81;45.22;92479.78;2021510;71;20556;-76
2022/08/16 08:14:56;;;;;;;3.22;2.10;;;;;;;24.37;45.03;92477.38;2021427;71;20240;-75
2022/08/16 08:17:22;;;;;;;3.42;2.50;;;;;;;24.79;46.76;92480.50;2024254;71;20145;-74
2022/08/16 08:19:48;;;;;;;4.88;2.33;;;;;;;27.81;41.69;92491.03;2021521;71;20176;-73
2022/08/16 08:22:14;;;;;;;2.55;2.30;;;;;;;26.33;41.37;92475.69;2024254;71;20199;-73
2022/08/16 08:24:47;;;;;;;2.72;2.20;;;;;;;25.49;42.23;92472.09;2021480;71;20145;-73
2022/08/16 08:27:13;;;;;;;2.13;1.92;;;;;;;25.50;44.47;92471.34;2025011;71;20251;-73
2022/08/16 08:29:40;;;;;;;2.45;2.22;;;;;;;25.83;43.60;92468.53;2021677;71;20578;-75
2022/08/16 08:32:08;;;;;;;6.70;2.20;;;;;;;24.66;42.82;92472.53;2024275;71;20590;-74
2022/08/16 08:34:34;;;;;;;2.15;1.95;;;;;;;24.86;44.09;92466.84;2022066;71;20165;-75
2022/08/16 08:37:00;;;;;;;3.13;2.33;;;;;;;26.06;43.98;92466.34;2025133;71;20605;-75
2022/08/16 08:39:37;;;;;;;2.45;2.25;;;;;;;26.24;41.82;92471.38;2024160;71;20153;-73
2022/08/16 08:42:04;;;;;;;2.67;2.10;;;;;;;26.32;44.04;92468.50;2020867;71;20153;-76
2022/08/16 08:44:30;;;;;;;2.45;2.25;;;;;;;27.13;42.20;92458.91;2021984;71;20149;-74
2022/08/16 08:47:00;;;;;;;2.63;2.28;;;;;;;26.17;41.24;92447.59;2024215;71;20188;-75
2022/08/16 08:49:29;;;;;;;2.45;2.25;;;;;;;26.86;42.05;92449.59;2024285;71;20151;-75
2022/08/16 08:51:57;;;;;;;3.17;2.40;;;;;;;27.18;39.24;92448.75;2018825;71;20153;-76
2022/08/16 08:54:25;;;;;;;2.30;2.08;;;;;;;27.06;41.67;92437.25;2020992;71;20249;-75
2022/08/16 08:56:53;;;;;;;3.60;2.17;;;;;;;27.72;41.03;92455.69;2021310;71;20495;-76
2022/08/16 08:59:31;;;;;;;2.80;2.00;;;;;;;28.45;38.82;92456.50;2021431;71;20169;-75
2022/08/16 09:01:58;;;;;;;2.38;2.00;;;;;;;27.73;39.32;92447.72;2023338;71;20237;-76
2022/08/16 09:04:44;;;;;;;2.67;2.30;;;;;;;28.43;39.92;92444.97;2022475;71;20602;-75
2022/08/16 09:07:12;;;;;;;2.88;2.60;;;;;;;28.84;38.40;92453.94;2022655;71;20649;-75
2022/08/16 09:09:38;;;;;;;2.30;2.10;;;;;;;29.05;37.58;92449.38;2019948;71;20228;-76
2022/08/16 09:12:07;;;;;;;3.38;2.00;;;;;;;29.14;37.38;92447.09;2018865;71;20179;-74
2022/08/16 09:15:11;;;;;;;2.50;2.30;;;;;;;28.31;37.88;92443.59;2018158;71;20200;-75
2022/08/16 09:17:38;;;;;;;3.45;2.28;;;;;;;28.03;39.18;92438.06;2021106;71;20184;-76
2022/08/16 09:20:06;;;;;;;4.07;2.40;;;;;;;28.45;37.82;92439.16;2024512;71;20683;-74
2022/08/16 09:23:03;;;;;;;2.30;2.10;;;;;;;29.37;36.64;92436.63;2024788;70;20241;-75
2022/08/16 09:25:42;;;;;;;2.28;2.08;;;;;;;28.60;38.86;92434.66;2018672;71;20189;-74
2022/08/16 09:28:12;;;;;;;3.15;2.10;;;;;;;29.37;37.01;92435.91;2023307;71;20168;-75
2022/08/16 09:30:45;;;;;;;3.85;2.00;;;;;;;29.03;37.89;92425.47;2021908;71;20161;-73
2022/08/16 09:33:17;;;;;;;2.38;1.90;;;;;;;28.56;37.63;92423.84;2024983;71;20585;-76
2022/08/16 10:02:36;;;;;;;2.42;2.13;;;;;;;29.31;36.38;92407.69;2094186;65;20229;-76
2022/08/16 10:05:03;;;;;;;2.47;2.28;;;;;;;30.94;33.67;92404.28;2025076;71;20149;-77
2022/08/16 10:07:31;;;;;;;4.38;2.25;;;;;;;30.76;34.00;92405.34;2021953;71;20133;-75
2022/08/16 10:09:56;;;;;;;2.50;2.30;;;;;;;29.56;35.57;92399.41;2025582;71;20252;-77
2022/08/16 10:15:16;;;;;;;3.38;2.10;;;;;;;29.86;34.95;92395.28;2025753;71;20160;-75
2022/08/16 10:17:47;;;;;;;2.90;2.28;;;;;;;29.68;34.41;92389.06;2026111;71;20146;-79
2022/08/16 10:20:13;;;;;;;2.33;2.10;;;;;;;30.70;34.51;92381.47;2025849;71;20171;-74
2022/08/16 10:22:39;;;;;;;2.50;2.30;;;;;;;30.24;35.07;92386.69;2025756;71;20169;-78
2022/08/16 10:25:06;;;;;;;2.80;2.00;;;;;;;30.88;33.25;92392.75;2025749;71;20236;-82
2022/08/16 10:27:33;;;;;;;4.10;2.10;;;;;;;32.21;33.19;92392.69;2026169;71;20167;-83
2022/08/16 10:30:00;;;;;;;3.45;2.10;;;;;;;31.93;31.43;92391.94;2026087;71;20617;-81
2022/08/16 10:32:26;;;;;;;2.50;2.10;;;;;;;33.08;31.71;92384.56;2025771;71;20210;-78
2022/08/16 10:34:52;;;;;;;2.72;1.85;;;;;;;32.23;29.55;92386.84;2025829;71;20260;-76
2022/08/16 10:37:18;;;;;;;3.58;2.08;;;;;;;31.96;30.29;92375.13;2025860;71;20145;-82
2022/08/16 10:39:44;;;;;;;3.38;1.73;;;;;;;31.46;30.10;92381.38;2025712;71;20232;-77
2022/08/16 10:42:10;;;;;;;2.35;1.50;;;;;;;33.42;27.81;92385.03;2025754;71;20141;-81
2022/08/16 10:44:36;;;;;;;2.10;1.67;;;;;;;33.76;27.39;92385.44;2025758;71;20173;-84
2022/08/16 10:47:03;;;;;;;3.35;1.80;;;;;;;32.69;28.52;92375.44;2025726;71;20243;-73
2022/08/16 10:49:28;;;;;;;2.28;1.50;;;;;;;33.72;28.61;92386.28;2025839;71;20156;-77
2022/08/16 10:51:54;;;;;;;2.08;1.50;;;;;;;33.94;27.09;92378.31;2025699;71;20161;-75
2022/08/16 10:54:21;;;;;;;1.70;1.40;;;;;;;35.02;25.54;92375.41;2025677;71;20145;-79
2022/08/16 10:56:47;;;;;;;1.50;1.40;;;;;;;36.51;24.27;92371.78;2025628;71;20198;-77
2022/08/16 10:59:13;;;;;;;2.30;1.20;;;;;;;37.27;23.04;92383.91;2025696;71;20297;-76
2022/08/16 11:01:39;;;;;;;1.10;1.00;;;;;;;38.30;24.04;92377.59;2025708;71;20518;-78
2022/08/16 11:04:05;;;;;;;1.30;1.20;;;;;;;40.78;20.41;92374.63;2025640;71;20230;-76
2022/08/16 11:06:31;;;;;;;2.55;1.05;;;;;;;40.31;19.59;92366.25;2025785;71;20168;-77
2022/08/16 11:08:57;;;;;;;1.73;1.00;;;;;;;42.49;17.99;92369.91;2025680;71;20556;-76
2022/08/16 11:11:23;;;;;;;1.98;1.30;;;;;;;40.97;18.23;92372.03;2025551;71;20157;-77
2022/08/16 11:13:51;;;;;;;1.45;1.10;;;;;;;43.03;17.50;92378.97;2025590;71;20182;-77
2022/08/16 11:16:18;;;;;;;1.15;1.02;;;;;;;45.33;15.10;92388.34;2025099;71;20193;-77
2022/08/16 11:18:44;;;;;;;3.75;1.10;;;;;;;45.08;15.28;92377.63;2024597;71;20325;-78
2022/08/16 11:21:12;;;;;;;1.48;1.10;;;;;;;43.97;17.07;92379.06;2021318;71;20197;-76
2022/08/16 11:23:37;;;;;;;1.25;1.15;;;;;;;46.18;15.53;92377.97;2025416;71;20179;-77
2022/08/16 11:26:03;;;;;;;1.85;1.13;;;;;;;45.88;15.27;92369.91;2025398;71;20599;-75
2022/08/16 11:28:30;;;;;;;1.50;1.20;;;;;;;44.91;14.82;92375.19;2025549;71;20149;-75
2022/08/16 11:30:56;;;;;;;1.95;1.15;;;;;;;46.35;15.52;92371.41;2025716;71;20164;-76
2022/08/16 11:33:22;;;;;;;1.17;1.10;;;;;;;45.91;15.49;92373.41;2025480;71;20185;-81
2022/08/16 11:35:50;;;;;;;1.40;1.20;;;;;;;48.35;13.60;92376.00;2024892;71;20234;-81
2022/08/16 11:38:21;;;;;;;1.73;1.05;;;;;;;50.18;13.09;92371.91;2022438;71;20240;-75
2022/08/16 11:40:57;;;;;;;1.08;0.98;;;;;;;50.42;13.22;92380.78;2025471;71;20177;-77
2022/08/16 11:43:33;;;;;;;1.00;0.90;;;;;;;49.20;11.88;92369.84;2025599;71;20168;-75
2022/08/16 11:46:02;;;;;;;0.98;0.90;;;;;;;48.78;13.88;92363.22;2025585;71;20153;-77
2022/08/16 11:48:29;;;;;;;1.33;0.90;;;;;;;51.73;11.48;92354.13;2022001;71;20149;-78
2022/08/16 11:50:55;;;;;;;1.00;0.90;;;;;;;49.06;13.68;92347.94;2025332;71;20180;-77
2022/08/16 11:53:23;;;;;;;1.40;1.10;;;;;;;46.89;13.56;92338.69;2025406;71;20755;-75
2022/08/16 11:55:51;;;;;;;1.38;0.88;;;;;;;49.14;12.73;92348.81;2025032;71;20621;-75
2022/08/16 11:58:17;;;;;;;1.33;0.90;;;;;;;50.20;11.99;92350.72;2025436;71;20605;-75
2022/08/16 12:00:45;;;;;;;0.90;0.90;;;;;;;51.03;11.85;92356.78;2025442;71;20149;-75
2022/08/16 12:03:11;;;;;;;1.30;0.90;;;;;;;52.59;11.52;92354.19;2025427;71;20236;-73
2022/08/16 12:05:39;;;;;;;1.83;1.05;;;;;;;51.23;11.66;92351.75;2025368;71;20221;-75
2022/08/16 12:08:06;;;;;;;1.27;0.90;;;;;;;50.37;11.71;92341.56;2025234;71;20144;-75